sensor_id;sensor_type;location;lat;lon;timestamp;pressure;altitude;pressure_sealevel;temperature;humidity
78409;BME280;67697;50.750;-3.270;2023-12-22T00:02:16;101044.96;;;10.21;100.00
78409;BME280;67697;50.750;-3.270;2023-12-22T00:04:42;101054.63;;;9.98;100.00
78409;BME280;67697;50.750;-3.270;2023-12-22T00:07:08;101055.79;;;9.63;100.00
78409;BME280;67697;50.750;-3.270;2023-12-22T00:09:33;101043.87;;;9.61;100.00
78409;BME280;67697;50.750;-3.270;2023-12-22T00:11:59;101048.95;;;9.88;100.00
78409;BME280;67697;50.750;-3.270;2023-12-22T00:14:24;101055.36;;;9.79;100.00
78409;BME280;67697;50.750;-3.270;2023-12-22T00:16:50;101057.91;;;9.92;100.00
78409;BME280;67697;50.750;-3.270;2023-12-22T00:19:16;101050.12;;;9.70;100.00
78409;BME280;67697;50.750;-3.270;2023-12-22T00:21:41;101037.16;;;10.12;100.00
78409;BME280;67697;50.750;-3.270;2023-12-22T00:24:07;101026.03;;;9.58;100.00
78409;BME280;67697;50.750;-3.270;2023-12-22T00:26:32;101017.10;;;9.81;100.00
78409;BME280;67697;50.750;-3.270;2023-12-22T00:28:58;101011.97;;;9.59;100.00
78409;BME280;67697;50.750;-3.270;2023-12-22T00:31:24;101011.89;;;9.42;100.00
78409;BME280;67697;50.750;-3.270;2023-12-22T00:33:49;101023.20;;;9.90;100.00
78409;BME280;67697;50.750;-3.270;2023-12-22T00:36:15;101034.69;;;10.08;100.00
78409;BME280;67697;50.750;-3.270;2023-12-22T00:38:41;101028.11;;;9.64;100.00
78409;BME280;67697;50.750;-3.270;2023-12-22T00:41:06;101025.80;;;10.04;100.00
78409;BME280;67697;50.750;-3.270;2023-12-22T00:43:32;101029.12;;;10.00;100.00
78409;BME280;67697;50.750;-3.270;2023-12-22T00:45:58;101034.81;;;10.00;100.00
78409;BME280;67697;50.750;-3.270;2023-12-22T00:48:23;101030.31;;;9.89;100.00
78409;BME280;67697;50.750;-3.270;2023-12-22T00:50:49;101026.24;;;9.82;100.00
78409;BME280;67697;50.750;-3.270;2023-12-22T00:53:14;101043.33;;;10.20;100.00
78409;BME280;67697;50.750;-3.270;2023-12-22T00:55:40;101051.06;;;9.73;100.00
78409;BME280;67697;50.750;-3.270;2023-12-22T00:58:06;101037.02;;;9.65;100.00
78409;BME280;67697;50.750;-3.270;2023-12-22T01:00:32;101035.03;;;9.62;100.00
78409;BME280;67697;50.750;-3.270;2023-12-22T01:02:57;101025.58;;;10.18;100.00
78409;BME280;67697;50.750;-3.270;2023-12-22T01:05:23;101026.83;;;10.12;100.00
78409;BME280;67697;50.750;-3.270;2023-12-22T01:07:48;101023.90;;;9.77;100.00
78409;BME280;67697;50.750;-3.270;2023-12-22T01:10:14;101031.25;;;9.38;100.00
78409;BME280;67697;50.750;-3.270;2023-12-22T01:12:39;101027.35;;;9.72;100.00
78409;BME280;67697;50.750;-3.270;2023-12-22T01:15:06;101029.04;;;9.67;100.00
78409;BME280;67697;50.750;-3.270;2023-12-22T01:17:31;101036.64;;;9.35;100.00
78409;BME280;67697;50.750;-3.270;2023-12-22T01:19:56;101034.72;;;9.10;100.00
78409;BME280;67697;50.750;-3.270;2023-12-22T01:22:22;101027.34;;;8.71;100.00
78409;BME280;67697;50.750;-3.270;2023-12-22T01:24:47;101022.19;;;9.14;100.00
78409;BME280;67697;50.750;-3.270;2023-12-22T01:27:13;101026.36;;;8.90;100.00
78409;BME280;67697;50.750;-3.270;2023-12-22T01:29:39;101023.72;;;8.92;100.00
78409;BME280;67697;50.750;-3.270;2023-12-22T01:32:05;101019.01;;;9.04;100.00
78409;BME280;67697;50.750;-3.270;2023-12-22T01:34:30;101002.23;;;9.27;100.00
78409;BME280;67697;50.750;-3.270;2023-12-22T01:36:56;101018.51;;;9.56;100.00
78409;BME280;67697;50.750;-3.270;2023-12-22T01:39:21;101032.50;;;9.43;100.00
78409;BME280;67697;50.750;-3.270;2023-12-22T01:41:47;101015.17;;;9.13;100.00
78409;BME280;67697;50.750;-3.270;2023-12-22T01:44:13;101011.39;;;9.40;100.00
78409;BME280;67697;50.750;-3.270;2023-12-22T01:46:39;101014.15;;;9.47;100.00
78409;BME280;67697;50.750;-3.270;2023-12-22T01:49:04;101001.56;;;9.77;100.00
78409;BME280;67697;50.750;-3.270;2023-12-22T01:51:30;101002.49;;;9.41;100.00
78409;BME280;67697;50.750;-3.270;2023-12-22T01:53:55;100993.92;;;9.73;100.00
78409;BME280;67697;50.750;-3.270;2023-12-22T01:56:21;101004.85;;;9.33;100.00
78409;BME280;67697;50.750;-3.270;2023-12-22T01:58:47;101011.65;;;9.51;100.00
78409;BME280;67697;50.750;-3.270;2023-12-22T02:01:12;101016.52;;;9.24;100.00
78409;BME280;67697;50.750;-3.270;2023-12-22T02:03:37;101022.16;;;9.12;100.00
78409;BME280;67697;50.750;-3.270;2023-12-22T02:06:03;101015.58;;;9.17;100.00
78409;BME280;67697;50.750;-3.270;2023-12-22T02:08:31;101014.18;;;8.97;100.00
78409;BME280;67697;50.750;-3.270;2023-12-22T02:10:55;101022.30;;;9.07;100.00
78409;BME280;67697;50.750;-3.270;2023-12-22T02:13:20;101020.66;;;9.29;100.00
78409;BME280;67697;50.750;-3.270;2023-12-22T02:15:48;101022.09;;;9.09;100.00
78409;BME280;67697;50.750;-3.270;2023-12-22T02:18:16;101026.72;;;9.49;100.00
78409;BME280;67697;50.750;-3.270;2023-12-22T02:20:37;101029.85;;;9.57;100.00
78409;BME280;67697;50.750;-3.270;2023-12-22T02:23:03;101034.46;;;9.03;100.00
78409;BME280;67697;50.750;-3.270;2023-12-22T02:25:29;101036.85;;;8.81;100.00
78409;BME280;67697;50.750;-3.270;2023-12-22T02:27:58;101037.98;;;9.12;100.00
78409;BME280;67697;50.750;-3.270;2023-12-22T02:30:25;101040.22;;;9.22;100.00
78409;BME280;67697;50.750;-3.270;2023-12-22T02:32:48;101041.75;;;9.28;100.00
78409;BME280;67697;50.750;-3.270;2023-12-22T02:35:14;101045.33;;;9.30;100.00
78409;BME280;67697;50.750;-3.270;2023-12-22T02:37:38;101039.05;;;9.58;100.00
78409;BME280;67697;50.750;-3.270;2023-12-22T02:40:03;101035.18;;;9.61;100.00
78409;BME280;67697;50.750;-3.270;2023-12-22T02:42:28;101034.23;;;9.59;100.00
78409;BME280;67697;50.750;-3.270;2023-12-22T02:44:53;101035.23;;;9.33;100.00
78409;BME280;67697;50.750;-3.270;2023-12-22T02:47:19;101037.52;;;9.37;100.00
78409;BME280;67697;50.750;-3.270;2023-12-22T02:49:45;101038.62;;;9.34;100.00
78409;BME280;67697;50.750;-3.270;2023-12-22T02:52:10;101042.83;;;9.02;100.00
78409;BME280;67697;50.750;-3.270;2023-12-22T02:54:37;101032.92;;;9.52;100.00
78409;BME280;67697;50.750;-3.270;2023-12-22T02:57:02;101039.72;;;9.47;100.00
78409;BME280;67697;50.750;-3.270;2023-12-22T02:59:27;101036.44;;;9.05;100.00
78409;BME280;67697;50.750;-3.270;2023-12-22T03:01:53;101029.62;;;8.81;100.00
78409;BME280;67697;50.750;-3.270;2023-12-22T03:04:19;101033.68;;;9.04;100.00
78409;BME280;67697;50.750;-3.270;2023-12-22T03:06:44;101035.04;;;9.32;100.00
78409;BME280;67697;50.750;-3.270;2023-12-22T03:09:10;101036.52;;;9.68;100.00
78409;BME280;67697;50.750;-3.270;2023-12-22T03:11:35;101027.74;;;9.48;100.00
78409;BME280;67697;50.750;-3.270;2023-12-22T03:14:01;101020.95;;;10.02;100.00
78409;BME280;67697;50.750;-3.270;2023-12-22T03:16:28;101025.49;;;9.52;100.00
78409;BME280;67697;50.750;-3.270;2023-12-22T03:18:52;101029.19;;;9.17;100.00
78409;BME280;67697;50.750;-3.270;2023-12-22T03:21:18;101028.77;;;9.39;100.00
78409;BME280;67697;50.750;-3.270;2023-12-22T03:23:44;101030.46;;;9.40;100.00
78409;BME280;67697;50.750;-3.270;2023-12-22T03:26:09;101025.55;;;9.80;100.00
78409;BME280;67697;50.750;-3.270;2023-12-22T03:28:35;101017.83;;;9.50;100.00
78409;BME280;67697;50.750;-3.270;2023-12-22T03:31:00;101018.17;;;9.78;100.00
78409;BME280;67697;50.750;-3.270;2023-12-22T03:33:26;101022.16;;;9.70;100.00
78409;BME280;67697;50.750;-3.270;2023-12-22T03:35:52;101021.90;;;9.44;100.00
78409;BME280;67697;50.750;-3.270;2023-12-22T03:38:17;101027.29;;;9.54;100.00
78409;BME280;67697;50.750;-3.270;2023-12-22T03:40:48;101031.33;;;9.78;100.00
78409;BME280;67697;50.750;-3.270;2023-12-22T03:43:08;101024.88;;;9.57;100.00
78409;BME280;67697;50.750;-3.270;2023-12-22T03:45:34;101027.76;;;8.84;100.00
78409;BME280;67697;50.750;-3.270;2023-12-22T03:48:00;101026.33;;;8.66;100.00
78409;BME280;67697;50.750;-3.270;2023-12-22T03:50:25;101024.74;;;9.40;100.00
78409;BME280;67697;50.750;-3.270;2023-12-22T03:52:51;101029.95;;;9.27;100.00
78409;BME280;67697;50.750;-3.270;2023-12-22T03:55:16;101023.33;;;9.38;100.00
78409;BME280;67697;50.750;-3.270;2023-12-22T03:57:42;101042.76;;;9.24;100.00
78409;BME280;67697;50.750;-3.270;2023-12-22T04:00:09;101029.04;;;9.80;100.00
78409;BME280;67697;50.750;-3.270;2023-12-22T04:02:33;101031.71;;;9.22;100.00
78409;BME280;67697;50.750;-3.270;2023-12-22T04:04:59;101035.96;;;9.49;100.00
78409;BME280;67697;50.750;-3.270;2023-12-22T04:07:25;101022.66;;;9.38;100.00
78409;BME280;67697;50.750;-3.270;2023-12-22T04:09:50;101020.20;;;8.92;100.00
78409;BME280;67697;50.750;-3.270;2023-12-22T04:12:16;101022.66;;;8.67;100.00
78409;BME280;67697;50.750;-3.270;2023-12-22T04:14:41;101034.37;;;9.30;100.00
78409;BME280;67697;50.750;-3.270;2023-12-22T04:17:07;101034.55;;;9.27;100.00
78409;BME280;67697;50.750;-3.270;2023-12-22T04:19:33;101036.39;;;8.91;100.00
78409;BME280;67697;50.750;-3.270;2023-12-22T04:21:58;101037.40;;;9.67;100.00
78409;BME280;67697;50.750;-3.270;2023-12-22T04:24:24;101024.72;;;9.07;100.00
78409;BME280;67697;50.750;-3.270;2023-12-22T04:26:51;101036.53;;;9.39;100.00
78409;BME280;67697;50.750;-3.270;2023-12-22T04:29:15;101037.73;;;8.98;100.00
78409;BME280;67697;50.750;-3.270;2023-12-22T04:31:40;101035.00;;;9.68;100.00
78409;BME280;67697;50.750;-3.270;2023-12-22T04:34:06;101031.34;;;9.71;100.00
78409;BME280;67697;50.750;-3.270;2023-12-22T04:36:34;101022.21;;;9.65;100.00
78409;BME280;67697;50.750;-3.270;2023-12-22T04:38:57;101021.50;;;9.80;100.00
78409;BME280;67697;50.750;-3.270;2023-12-22T04:41:22;101029.41;;;9.86;100.00
78409;BME280;67697;50.750;-3.270;2023-12-22T04:43:48;101030.66;;;8.97;100.00
78409;BME280;67697;50.750;-3.270;2023-12-22T04:46:14;101014.96;;;9.38;100.00
78409;BME280;67697;50.750;-3.270;2023-12-22T04:48:39;101016.83;;;9.17;100.00
78409;BME280;67697;50.750;-3.270;2023-12-22T04:51:05;101016.94;;;9.39;100.00
78409;BME280;67697;50.750;-3.270;2023-12-22T04:53:31;101013.38;;;9.10;100.00
78409;BME280;67697;50.750;-3.270;2023-12-22T04:55:57;101017.85;;;9.29;100.00
78409;BME280;67697;50.750;-3.270;2023-12-22T04:58:22;101018.76;;;9.18;100.00
78409;BME280;67697;50.750;-3.270;2023-12-22T05:00:48;101026.03;;;9.37;100.00
78409;BME280;67697;50.750;-3.270;2023-12-22T05:03:13;101031.22;;;9.44;100.00
78409;BME280;67697;50.750;-3.270;2023-12-22T05:05:38;101028.45;;;10.05;100.00
78409;BME280;67697;50.750;-3.270;2023-12-22T05:08:04;101031.40;;;9.59;100.00
78409;BME280;67697;50.750;-3.270;2023-12-22T05:10:31;101036.19;;;8.99;100.00
78409;BME280;67697;50.750;-3.270;2023-12-22T05:12:55;101042.31;;;9.28;100.00
78409;BME280;67697;50.750;-3.270;2023-12-22T05:15:21;101036.42;;;9.39;100.00
78409;BME280;67697;50.750;-3.270;2023-12-22T05:17:46;101050.08;;;9.24;100.00
78409;BME280;67697;50.750;-3.270;2023-12-22T05:20:12;101055.04;;;9.01;100.00
78409;BME280;67697;50.750;-3.270;2023-12-22T05:22:38;101058.24;;;8.93;100.00
78409;BME280;67697;50.750;-3.270;2023-12-22T05:25:04;101059.15;;;8.84;100.00
78409;BME280;67697;50.750;-3.270;2023-12-22T05:27:29;101068.22;;;8.62;100.00
78409;BME280;67697;50.750;-3.270;2023-12-22T05:29:54;101055.81;;;9.08;100.00
78409;BME280;67697;50.750;-3.270;2023-12-22T05:32:20;101067.50;;;8.82;100.00
78409;BME280;67697;50.750;-3.270;2023-12-22T05:34:46;101068.01;;;9.18;100.00
78409;BME280;67697;50.750;-3.270;2023-12-22T05:37:11;101080.27;;;9.02;100.00
78409;BME280;67697;50.750;-3.270;2023-12-22T05:39:37;101083.31;;;9.17;100.00
78409;BME280;67697;50.750;-3.270;2023-12-22T05:42:03;101087.07;;;8.92;100.00
78409;BME280;67697;50.750;-3.270;2023-12-22T05:44:28;101088.72;;;8.54;100.00
78409;BME280;67697;50.750;-3.270;2023-12-22T05:46:56;101088.50;;;9.08;100.00
78409;BME280;67697;50.750;-3.270;2023-12-22T05:49:19;101082.65;;;9.20;100.00
78409;BME280;67697;50.750;-3.270;2023-12-22T05:51:45;101083.59;;;9.37;100.00
78409;BME280;67697;50.750;-3.270;2023-12-22T05:54:11;101071.74;;;9.79;100.00
78409;BME280;67697;50.750;-3.270;2023-12-22T05:56:36;101068.87;;;9.71;100.00
78409;BME280;67697;50.750;-3.270;2023-12-22T05:59:02;101073.19;;;9.24;100.00
78409;BME280;67697;50.750;-3.270;2023-12-22T06:01:28;101069.61;;;9.26;100.00
78409;BME280;67697;50.750;-3.270;2023-12-22T06:03:53;101074.19;;;9.34;100.00
78409;BME280;67697;50.750;-3.270;2023-12-22T06:06:18;101073.23;;;9.40;100.00
78409;BME280;67697;50.750;-3.270;2023-12-22T06:08:44;101066.75;;;9.25;100.00
78409;BME280;67697;50.750;-3.270;2023-12-22T06:11:10;101061.05;;;9.12;100.00
78409;BME280;67697;50.750;-3.270;2023-12-22T06:13:35;101059.54;;;9.02;100.00
78409;BME280;67697;50.750;-3.270;2023-12-22T06:16:01;101051.79;;;9.40;100.00
78409;BME280;67697;50.750;-3.270;2023-12-22T06:18:27;101061.15;;;9.18;100.00
78409;BME280;67697;50.750;-3.270;2023-12-22T06:20:52;101054.94;;;8.49;100.00
78409;BME280;67697;50.750;-3.270;2023-12-22T06:23:18;101056.86;;;9.27;100.00
78409;BME280;67697;50.750;-3.270;2023-12-22T06:25:43;101054.57;;;9.46;100.00
78409;BME280;67697;50.750;-3.270;2023-12-22T06:28:09;101048.93;;;9.65;100.00
78409;BME280;67697;50.750;-3.270;2023-12-22T06:30:34;101066.80;;;9.10;100.00
78409;BME280;67697;50.750;-3.270;2023-12-22T06:33:00;101064.78;;;8.87;100.00
78409;BME280;67697;50.750;-3.270;2023-12-22T06:35:25;101068.64;;;8.65;100.00
78409;BME280;67697;50.750;-3.270;2023-12-22T06:37:51;101071.14;;;8.99;100.00
78409;BME280;67697;50.750;-3.270;2023-12-22T06:40:16;101072.41;;;9.18;100.00
78409;BME280;67697;50.750;-3.270;2023-12-22T06:42:42;101067.58;;;8.95;100.00
78409;BME280;67697;50.750;-3.270;2023-12-22T06:45:08;101063.19;;;9.17;100.00
78409;BME280;67697;50.750;-3.270;2023-12-22T06:47:33;101064.01;;;8.90;100.00
78409;BME280;67697;50.750;-3.270;2023-12-22T06:49:58;101067.16;;;8.86;100.00
78409;BME280;67697;50.750;-3.270;2023-12-22T06:52:24;101069.26;;;8.95;100.00
78409;BME280;67697;50.750;-3.270;2023-12-22T06:54:49;101085.65;;;9.02;100.00
78409;BME280;67697;50.750;-3.270;2023-12-22T06:57:15;101078.97;;;8.48;100.00
78409;BME280;67697;50.750;-3.270;2023-12-22T06:59:40;101078.96;;;8.89;100.00
78409;BME280;67697;50.750;-3.270;2023-12-22T07:02:05;101083.63;;;8.82;100.00
78409;BME280;67697;50.750;-3.270;2023-12-22T07:04:36;101079.33;;;8.76;100.00
78409;BME280;67697;50.750;-3.270;2023-12-22T07:06:56;101071.14;;;9.21;100.00
78409;BME280;67697;50.750;-3.270;2023-12-22T07:09:30;101105.19;;;8.30;100.00
78409;BME280;67697;50.750;-3.270;2023-12-22T07:11:50;101080.62;;;9.17;100.00
78409;BME280;67697;50.750;-3.270;2023-12-22T07:14:13;101079.21;;;9.28;100.00
78409;BME280;67697;50.750;-3.270;2023-12-22T07:16:39;101070.07;;;8.91;100.00
78409;BME280;67697;50.750;-3.270;2023-12-22T07:19:04;101083.11;;;9.26;100.00
78409;BME280;67697;50.750;-3.270;2023-12-22T07:21:30;101089.19;;;9.35;100.00
78409;BME280;67697;50.750;-3.270;2023-12-22T07:23:55;101080.18;;;9.02;100.00
78409;BME280;67697;50.750;-3.270;2023-12-22T07:26:20;101091.28;;;8.54;100.00
78409;BME280;67697;50.750;-3.270;2023-12-22T07:28:46;101100.93;;;9.39;100.00
78409;BME280;67697;50.750;-3.270;2023-12-22T07:31:12;101098.11;;;9.00;100.00
78409;BME280;67697;50.750;-3.270;2023-12-22T07:33:37;101094.64;;;9.51;100.00
78409;BME280;67697;50.750;-3.270;2023-12-22T07:36:03;101094.52;;;9.06;100.00
78409;BME280;67697;50.750;-3.270;2023-12-22T07:38:28;101096.28;;;8.61;100.00
78409;BME280;67697;50.750;-3.270;2023-12-22T07:40:54;101095.75;;;9.16;100.00
78409;BME280;67697;50.750;-3.270;2023-12-22T07:43:19;101100.54;;;9.15;100.00
78409;BME280;67697;50.750;-3.270;2023-12-22T07:45:45;101114.45;;;9.23;100.00
78409;BME280;67697;50.750;-3.270;2023-12-22T07:48:11;101112.78;;;8.96;100.00
78409;BME280;67697;50.750;-3.270;2023-12-22T07:50:38;101118.12;;;8.97;100.00
78409;BME280;67697;50.750;-3.270;2023-12-22T07:53:02;101118.64;;;9.14;100.00
78409;BME280;67697;50.750;-3.270;2023-12-22T07:55:27;101121.70;;;8.60;100.00
78409;BME280;67697;50.750;-3.270;2023-12-22T07:57:53;101140.26;;;8.90;100.00
78409;BME280;67697;50.750;-3.270;2023-12-22T08:00:19;101128.67;;;9.26;99.05
78409;BME280;67697;50.750;-3.270;2023-12-22T08:02:44;101126.08;;;9.26;97.10
78409;BME280;67697;50.750;-3.270;2023-12-22T08:05:10;101150.89;;;9.08;98.15
78409;BME280;67697;50.750;-3.270;2023-12-22T08:07:36;101139.82;;;8.72;98.53
78409;BME280;67697;50.750;-3.270;2023-12-22T08:10:02;101122.21;;;8.86;99.03
78409;BME280;67697;50.750;-3.270;2023-12-22T08:12:27;101140.40;;;8.79;98.99
78409;BME280;67697;50.750;-3.270;2023-12-22T08:14:54;101139.77;;;8.86;98.23
78409;BME280;67697;50.750;-3.270;2023-12-22T08:17:18;101142.77;;;8.78;98.57
78409;BME280;67697;50.750;-3.270;2023-12-22T08:19:44;101140.38;;;8.33;98.90
78409;BME280;67697;50.750;-3.270;2023-12-22T08:22:10;101141.90;;;8.77;98.66
78409;BME280;67697;50.750;-3.270;2023-12-22T08:24:35;101135.35;;;8.41;99.43
78409;BME280;67697;50.750;-3.270;2023-12-22T08:27:01;101137.21;;;8.83;100.00
78409;BME280;67697;50.750;-3.270;2023-12-22T08:29:26;101146.26;;;8.92;98.93
78409;BME280;67697;50.750;-3.270;2023-12-22T08:31:52;101144.86;;;8.62;98.23
78409;BME280;67697;50.750;-3.270;2023-12-22T08:34:18;101137.19;;;8.81;98.64
78409;BME280;67697;50.750;-3.270;2023-12-22T08:36:44;101156.70;;;8.89;98.22
78409;BME280;67697;50.750;-3.270;2023-12-22T08:39:11;101160.17;;;9.10;99.20
78409;BME280;67697;50.750;-3.270;2023-12-22T08:41:35;101167.02;;;8.38;100.00
78409;BME280;67697;50.750;-3.270;2023-12-22T08:44:00;101168.12;;;9.17;99.85
78409;BME280;67697;50.750;-3.270;2023-12-22T08:46:26;101163.69;;;9.11;98.84
78409;BME280;67697;50.750;-3.270;2023-12-22T08:48:52;101167.97;;;8.93;99.06
78409;BME280;67697;50.750;-3.270;2023-12-22T08:51:17;101166.66;;;8.97;99.70
78409;BME280;67697;50.750;-3.270;2023-12-22T08:53:43;101172.99;;;8.83;99.91
78409;BME280;67697;50.750;-3.270;2023-12-22T08:56:09;101169.74;;;9.20;100.00
78409;BME280;67697;50.750;-3.270;2023-12-22T08:58:34;101166.60;;;9.18;99.61
78409;BME280;67697;50.750;-3.270;2023-12-22T09:01:00;101164.01;;;9.25;98.38
78409;BME280;67697;50.750;-3.270;2023-12-22T09:03:25;101163.27;;;9.88;96.36
78409;BME280;67697;50.750;-3.270;2023-12-22T09:05:50;101164.29;;;9.53;97.96
78409;BME280;67697;50.750;-3.270;2023-12-22T09:08:16;101179.90;;;8.66;99.91
78409;BME280;67697;50.750;-3.270;2023-12-22T09:10:41;101178.82;;;9.73;98.45
78409;BME280;67697;50.750;-3.270;2023-12-22T09:13:07;101181.22;;;9.11;98.73
78409;BME280;67697;50.750;-3.270;2023-12-22T09:15:32;101183.11;;;8.77;100.00
78409;BME280;67697;50.750;-3.270;2023-12-22T09:17:58;101167.80;;;9.27;100.00
78409;BME280;67697;50.750;-3.270;2023-12-22T09:20:23;101170.75;;;9.28;100.00
78409;BME280;67697;50.750;-3.270;2023-12-22T09:22:49;101173.93;;;9.36;100.00
78409;BME280;67697;50.750;-3.270;2023-12-22T09:25:15;101168.30;;;9.36;100.00
78409;BME280;67697;50.750;-3.270;2023-12-22T09:27:40;101177.14;;;9.39;100.00
78409;BME280;67697;50.750;-3.270;2023-12-22T09:30:07;101177.48;;;9.22;100.00
78409;BME280;67697;50.750;-3.270;2023-12-22T09:32:31;101176.81;;;9.28;100.00
78409;BME280;67697;50.750;-3.270;2023-12-22T09:34:57;101178.78;;;8.83;100.00
78409;BME280;67697;50.750;-3.270;2023-12-22T09:37:22;101178.58;;;8.91;100.00
78409;BME280;67697;50.750;-3.270;2023-12-22T09:39:48;101176.70;;;9.23;100.00
78409;BME280;67697;50.750;-3.270;2023-12-22T09:42:13;101178.91;;;9.41;100.00
78409;BME280;67697;50.750;-3.270;2023-12-22T09:44:40;101171.90;;;9.13;100.00
78409;BME280;67697;50.750;-3.270;2023-12-22T09:47:05;101170.09;;;9.51;100.00
78409;BME280;67697;50.750;-3.270;2023-12-22T09:49:30;101179.19;;;8.99;100.00
78409;BME280;67697;50.750;-3.270;2023-12-22T09:51:57;101172.70;;;9.48;99.98
78409;BME280;67697;50.750;-3.270;2023-12-22T09:54:21;101179.29;;;9.22;100.00
78409;BME280;67697;50.750;-3.270;2023-12-22T09:56:47;101179.40;;;9.41;100.00
78409;BME280;67697;50.750;-3.270;2023-12-22T09:59:13;101181.18;;;9.34;99.95
78409;BME280;67697;50.750;-3.270;2023-12-22T10:01:40;101182.17;;;9.48;99.63
78409;BME280;67697;50.750;-3.270;2023-12-22T10:04:04;101175.14;;;9.52;100.00
78409;BME280;67697;50.750;-3.270;2023-12-22T10:06:29;101200.32;;;9.35;99.65
78409;BME280;67697;50.750;-3.270;2023-12-22T10:08:55;101196.21;;;9.30;99.57
78409;BME280;67697;50.750;-3.270;2023-12-22T10:11:21;101191.32;;;9.05;98.86
78409;BME280;67697;50.750;-3.270;2023-12-22T10:13:46;101199.09;;;9.18;100.00
78409;BME280;67697;50.750;-3.270;2023-12-22T10:16:11;101198.26;;;9.06;99.46
78409;BME280;67697;50.750;-3.270;2023-12-22T10:18:37;101194.99;;;8.85;100.00
78409;BME280;67697;50.750;-3.270;2023-12-22T10:21:03;101188.23;;;9.51;98.88
78409;BME280;67697;50.750;-3.270;2023-12-22T10:23:28;101191.46;;;9.69;97.42
78409;BME280;67697;50.750;-3.270;2023-12-22T10:25:54;101206.27;;;9.33;98.25
78409;BME280;67697;50.750;-3.270;2023-12-22T10:28:19;101200.90;;;9.10;99.14
78409;BME280;67697;50.750;-3.270;2023-12-22T10:30:45;101202.43;;;9.13;99.58
78409;BME280;67697;50.750;-3.270;2023-12-22T10:33:12;101207.33;;;9.56;98.40
78409;BME280;67697;50.750;-3.270;2023-12-22T10:35:36;101205.94;;;9.51;99.20
78409;BME280;67697;50.750;-3.270;2023-12-22T10:38:03;101213.08;;;9.51;98.70
78409;BME280;67697;50.750;-3.270;2023-12-22T10:40:27;101213.33;;;9.40;97.92
78409;BME280;67697;50.750;-3.270;2023-12-22T10:42:53;101214.41;;;9.50;97.51
78409;BME280;67697;50.750;-3.270;2023-12-22T10:45:20;101221.43;;;9.17;99.85
78409;BME280;67697;50.750;-3.270;2023-12-22T10:47:44;101213.75;;;9.68;98.73
78409;BME280;67697;50.750;-3.270;2023-12-22T10:50:12;101222.36;;;9.90;97.95
78409;BME280;67697;50.750;-3.270;2023-12-22T10:52:35;101234.10;;;9.46;99.67
78409;BME280;67697;50.750;-3.270;2023-12-22T10:55:01;101233.07;;;9.31;100.00
78409;BME280;67697;50.750;-3.270;2023-12-22T10:57:27;101234.13;;;8.67;100.00
78409;BME280;67697;50.750;-3.270;2023-12-22T10:59:53;101224.17;;;8.78;100.00
78409;BME280;67697;50.750;-3.270;2023-12-22T11:02:19;101216.80;;;8.62;100.00
78409;BME280;67697;50.750;-3.270;2023-12-22T11:04:50;101224.88;;;8.58;100.00
78409;BME280;67697;50.750;-3.270;2023-12-22T11:07:09;101219.74;;;8.85;100.00
78409;BME280;67697;50.750;-3.270;2023-12-22T11:09:35;101216.61;;;9.25;100.00
78409;BME280;67697;50.750;-3.270;2023-12-22T11:12:01;101210.93;;;9.15;100.00
78409;BME280;67697;50.750;-3.270;2023-12-22T11:14:26;101218.70;;;9.05;100.00
78409;BME280;67697;50.750;-3.270;2023-12-22T11:16:54;101210.41;;;9.03;100.00
78409;BME280;67697;50.750;-3.270;2023-12-22T11:19:18;101222.49;;;8.55;100.00
78409;BME280;67697;50.750;-3.270;2023-12-22T11:21:45;101224.64;;;8.93;100.00
78409;BME280;67697;50.750;-3.270;2023-12-22T11:24:11;101220.05;;;9.03;100.00
78409;BME280;67697;50.750;-3.270;2023-12-22T11:26:35;101224.28;;;9.40;100.00
78409;BME280;67697;50.750;-3.270;2023-12-22T11:29:03;101225.51;;;9.40;100.00
78409;BME280;67697;50.750;-3.270;2023-12-22T11:31:28;101230.48;;;9.02;100.00
78409;BME280;67697;50.750;-3.270;2023-12-22T11:33:51;101230.14;;;9.24;100.00
78409;BME280;67697;50.750;-3.270;2023-12-22T11:36:18;101226.25;;;9.11;100.00
78409;BME280;67697;50.750;-3.270;2023-12-22T11:38:44;101235.42;;;9.06;100.00
78409;BME280;67697;50.750;-3.270;2023-12-22T11:41:09;101231.91;;;8.84;100.00
78409;BME280;67697;50.750;-3.270;2023-12-22T11:43:34;101229.69;;;9.24;100.00
78409;BME280;67697;50.750;-3.270;2023-12-22T11:46:01;101229.61;;;9.57;100.00
78409;BME280;67697;50.750;-3.270;2023-12-22T11:48:25;101230.16;;;8.94;100.00
78409;BME280;67697;50.750;-3.270;2023-12-22T11:50:51;101228.82;;;9.42;100.00
78409;BME280;67697;50.750;-3.270;2023-12-22T11:53:21;101226.67;;;9.03;100.00
78409;BME280;67697;50.750;-3.270;2023-12-22T11:55:56;101221.93;;;9.20;100.00
78409;BME280;67697;50.750;-3.270;2023-12-22T12:00:42;101192.58;;;9.06;100.00
78409;BME280;67697;50.750;-3.270;2023-12-22T12:03:04;101194.52;;;9.40;100.00
78409;BME280;67697;50.750;-3.270;2023-12-22T12:05:26;101191.76;;;9.90;100.00
78409;BME280;67697;50.750;-3.270;2023-12-22T12:07:51;101193.53;;;9.31;100.00
78409;BME280;67697;50.750;-3.270;2023-12-22T12:12:41;101166.65;;;9.69;100.00
78409;BME280;67697;50.750;-3.270;2023-12-22T12:15:12;101178.80;;;9.74;100.00
78409;BME280;67697;50.750;-3.270;2023-12-22T12:17:33;101184.25;;;9.94;98.46
78409;BME280;67697;50.750;-3.270;2023-12-22T12:19:58;101180.01;;;9.70;99.35
78409;BME280;67697;50.750;-3.270;2023-12-22T12:22:24;101176.38;;;9.65;99.52
78409;BME280;67697;50.750;-3.270;2023-12-22T12:24:49;101175.51;;;9.30;99.74
78409;BME280;67697;50.750;-3.270;2023-12-22T12:27:18;101174.50;;;9.62;99.44
78409;BME280;67697;50.750;-3.270;2023-12-22T12:29:42;101177.22;;;9.48;98.66
78409;BME280;67697;50.750;-3.270;2023-12-22T12:32:06;101177.46;;;9.38;100.00
78409;BME280;67697;50.750;-3.270;2023-12-22T12:34:32;101197.35;;;8.82;99.80
78409;BME280;67697;50.750;-3.270;2023-12-22T12:36:58;101176.55;;;9.36;99.45